Aérodrome :
LOGIN :

S'inscrire | Disclaimer

   EN    FR    IT 

 










Légende :    VFR   VFR Marginal   IFR   IFR Intensif   IFR Très Intensif
Visi : 
Plafond : 
>= 8 km
>= 3000ft
5 à 8 km
1000 à 3000 ft
1500m à 5 km
500 à 1000 ft
800 à 1500m
200 à 500 ft
< 800m
< 200 ft
Symboles :   Orages  Brouillard  Fortes neiges  Fortes précipitations  Vent > 20 kt
SIGMETs :   Divers  Orages  Givrage  Turbulence  Onde Orograph.  Cendres Volcan.






- Altitude de l'aérodrome : 16 ft
- Code IATA : SDR


LEXJ - Santander Cantabria

DERNIER METAR :
  • 291300Z 27006KT 230V320 9999 OVC052 14/08 Q1008

METARs EXPIRÉS :
  • 291230Z 29007KT 270V330 9999 OVC050 14/09 Q1008
  • 291200Z 29005KT 240V360 9999 OVC050 14/10 Q1008
  • 291130Z 25004KT 210V300 9999 FEW035 OVC050 14/09 Q1008
  • 291100Z 24004KT 190V300 9999 FEW030 BKN045 13/10 Q1008
  • 291030Z 28007KT 200V320 9999 FEW024 BKN038 13/10 Q1007

TAF TAF LEXJ
Valide du 29 à 09h jusqu'au 01 à 09h UTC


290800Z 2909/0109 26008KT 9999 BKN050 TX16/2914Z TN10/0104Z
PROB30
TEMPO 2909/2921 RA
TEMPO 2913/2920 29015G25KT
TEMPO 0106/0109 22015G28KT



MET'MAP, la Météo Aéronautique d'un coup d'oeil ! - Copyright ORBIFLY Décembre 2007 - Disclaimer

ORBIFLY MET'MAP TEAM :

Programmation & Développement : Alexandra Zaïnal
Sur une idée originale de : Baudouin d'Aumeries
Assistance à la programmation : Marc-Olivier Méhu
Soutien technique & logistique : Manuel Goepfert

Contact : metmap@orbifly.com




SOURCES & CREDITS :

   NOAA